sensor_id;sensor_type;location;lat;lon;timestamp;P1;durP1;ratioP1;P2;durP2;ratioP2
41653;SDS011;30790;52.030;7.110;2022-09-29T00:01:06;3.28;;;1.30;;
41653;SDS011;30790;52.030;7.110;2022-09-29T00:03:32;3.97;;;1.00;;
41653;SDS011;30790;52.030;7.110;2022-09-29T00:05:58;4.15;;;1.10;;
41653;SDS011;30790;52.030;7.110;2022-09-29T00:08:24;3.78;;;1.02;;
41653;SDS011;30790;52.030;7.110;2022-09-29T00:10:52;2.72;;;1.30;;
41653;SDS011;30790;52.030;7.110;2022-09-29T00:13:17;7.32;;;1.60;;
41653;SDS011;30790;52.030;7.110;2022-09-29T00:15:43;5.97;;;1.52;;
41653;SDS011;30790;52.030;7.110;2022-09-29T00:18:08;2.75;;;1.30;;
41653;SDS011;30790;52.030;7.110;2022-09-29T00:20:35;5.65;;;1.30;;
41653;SDS011;30790;52.030;7.110;2022-09-29T00:23:01;7.13;;;1.60;;
41653;SDS011;30790;52.030;7.110;2022-09-29T00:25:26;4.45;;;1.33;;
41653;SDS011;30790;52.030;7.110;2022-09-29T00:27:51;12.98;;;1.70;;
41653;SDS011;30790;52.030;7.110;2022-09-29T00:30:17;14.45;;;2.45;;
41653;SDS011;30790;52.030;7.110;2022-09-29T00:32:42;12.27;;;1.75;;
41653;SDS011;30790;52.030;7.110;2022-09-29T00:35:08;14.68;;;1.80;;
41653;SDS011;30790;52.030;7.110;2022-09-29T00:37:34;12.50;;;1.70;;
41653;SDS011;30790;52.030;7.110;2022-09-29T00:40:00;10.15;;;1.33;;
41653;SDS011;30790;52.030;7.110;2022-09-29T00:42:27;10.00;;;1.60;;
41653;SDS011;30790;52.030;7.110;2022-09-29T00:44:58;8.48;;;1.45;;
41653;SDS011;30790;52.030;7.110;2022-09-29T00:47:43;8.70;;;1.67;;
41653;SDS011;30790;52.030;7.110;2022-09-29T00:52:56;7.70;;;1.65;;
41653;SDS011;30790;52.030;7.110;2022-09-29T00:55:35;5.38;;;1.58;;
41653;SDS011;30790;52.030;7.110;2022-09-29T00:58:12;8.52;;;1.50;;
41653;SDS011;30790;52.030;7.110;2022-09-29T01:00:46;3.70;;;1.30;;
41653;SDS011;30790;52.030;7.110;2022-09-29T01:03:13;9.27;;;1.50;;
41653;SDS011;30790;52.030;7.110;2022-09-29T01:05:43;4.15;;;1.10;;
41653;SDS011;30790;52.030;7.110;2022-09-29T01:08:19;10.27;;;1.48;;
41653;SDS011;30790;52.030;7.110;2022-09-29T01:10:50;9.30;;;1.52;;
41653;SDS011;30790;52.030;7.110;2022-09-29T01:13:17;9.23;;;1.20;;
41653;SDS011;30790;52.030;7.110;2022-09-29T01:15:43;4.63;;;1.17;;
41653;SDS011;30790;52.030;7.110;2022-09-29T01:18:09;7.53;;;1.20;;
41653;SDS011;30790;52.030;7.110;2022-09-29T01:20:36;6.10;;;1.33;;
41653;SDS011;30790;52.030;7.110;2022-09-29T01:26:24;8.98;;;1.63;;
41653;SDS011;30790;52.030;7.110;2022-09-29T01:32:07;8.98;;;1.40;;
41653;SDS011;30790;52.030;7.110;2022-09-29T01:34:56;5.20;;;1.00;;
41653;SDS011;30790;52.030;7.110;2022-09-29T01:40:15;2.63;;;1.08;;
41653;SDS011;30790;52.030;7.110;2022-09-29T01:42:48;7.38;;;1.38;;
41653;SDS011;30790;52.030;7.110;2022-09-29T01:45:23;6.65;;;2.13;;
41653;SDS011;30790;52.030;7.110;2022-09-29T01:47:58;4.38;;;1.73;;
41653;SDS011;30790;52.030;7.110;2022-09-29T01:50:31;6.97;;;1.65;;
41653;SDS011;30790;52.030;7.110;2022-09-29T01:53:10;4.60;;;1.38;;
41653;SDS011;30790;52.030;7.110;2022-09-29T01:55:44;6.38;;;1.52;;
41653;SDS011;30790;52.030;7.110;2022-09-29T01:58:15;8.95;;;1.40;;
41653;SDS011;30790;52.030;7.110;2022-09-29T02:00:47;13.68;;;2.03;;
41653;SDS011;30790;52.030;7.110;2022-09-29T02:06:01;3.33;;;1.20;;
41653;SDS011;30790;52.030;7.110;2022-09-29T02:08:32;4.47;;;1.30;;
41653;SDS011;30790;52.030;7.110;2022-09-29T02:11:03;4.43;;;1.55;;
41653;SDS011;30790;52.030;7.110;2022-09-29T02:13:31;5.63;;;1.30;;
41653;SDS011;30790;52.030;7.110;2022-09-29T02:16:02;5.55;;;1.20;;
41653;SDS011;30790;52.030;7.110;2022-09-29T02:18:31;5.00;;;1.30;;
41653;SDS011;30790;52.030;7.110;2022-09-29T02:21:04;4.75;;;1.35;;
41653;SDS011;30790;52.030;7.110;2022-09-29T02:23:29;2.95;;;1.25;;
41653;SDS011;30790;52.030;7.110;2022-09-29T02:25:55;1.98;;;1.15;;
41653;SDS011;30790;52.030;7.110;2022-09-29T02:28:22;4.10;;;1.63;;
41653;SDS011;30790;52.030;7.110;2022-09-29T02:30:49;2.53;;;1.20;;
41653;SDS011;30790;52.030;7.110;2022-09-29T02:33:16;3.85;;;1.38;;
41653;SDS011;30790;52.030;7.110;2022-09-29T02:35:52;4.65;;;1.40;;
41653;SDS011;30790;52.030;7.110;2022-09-29T02:38:27;8.82;;;1.67;;
41653;SDS011;30790;52.030;7.110;2022-09-29T02:46:26;6.78;;;1.30;;
41653;SDS011;30790;52.030;7.110;2022-09-29T02:49:29;4.53;;;1.48;;
41653;SDS011;30790;52.030;7.110;2022-09-29T02:57:49;3.45;;;1.33;;
41653;SDS011;30790;52.030;7.110;2022-09-29T03:00:22;5.35;;;1.42;;
41653;SDS011;30790;52.030;7.110;2022-09-29T03:02:48;4.57;;;1.10;;
41653;SDS011;30790;52.030;7.110;2022-09-29T03:05:17;4.40;;;2.13;;
41653;SDS011;30790;52.030;7.110;2022-09-29T03:07:45;3.38;;;1.40;;
41653;SDS011;30790;52.030;7.110;2022-09-29T03:10:11;2.28;;;1.20;;
41653;SDS011;30790;52.030;7.110;2022-09-29T03:12:38;6.85;;;2.67;;
41653;SDS011;30790;52.030;7.110;2022-09-29T03:15:04;3.38;;;2.08;;
41653;SDS011;30790;52.030;7.110;2022-09-29T03:17:31;6.85;;;2.00;;
41653;SDS011;30790;52.030;7.110;2022-09-29T03:19:56;10.43;;;1.80;;
41653;SDS011;30790;52.030;7.110;2022-09-29T03:22:21;2.05;;;1.23;;
41653;SDS011;30790;52.030;7.110;2022-09-29T03:24:47;5.75;;;1.33;;
41653;SDS011;30790;52.030;7.110;2022-09-29T03:27:12;4.63;;;1.67;;
41653;SDS011;30790;52.030;7.110;2022-09-29T03:29:38;5.50;;;1.65;;
41653;SDS011;30790;52.030;7.110;2022-09-29T03:32:03;2.92;;;1.42;;
41653;SDS011;30790;52.030;7.110;2022-09-29T03:34:29;2.45;;;1.52;;
41653;SDS011;30790;52.030;7.110;2022-09-29T03:36:55;5.28;;;1.67;;
41653;SDS011;30790;52.030;7.110;2022-09-29T03:39:22;6.32;;;1.60;;
41653;SDS011;30790;52.030;7.110;2022-09-29T03:41:48;4.53;;;1.33;;
41653;SDS011;30790;52.030;7.110;2022-09-29T03:44:13;3.22;;;1.50;;
41653;SDS011;30790;52.030;7.110;2022-09-29T03:46:38;3.38;;;1.20;;
41653;SDS011;30790;52.030;7.110;2022-09-29T03:49:04;4.53;;;1.70;;
41653;SDS011;30790;52.030;7.110;2022-09-29T03:51:29;3.15;;;1.30;;
41653;SDS011;30790;52.030;7.110;2022-09-29T03:53:55;3.85;;;1.63;;
41653;SDS011;30790;52.030;7.110;2022-09-29T03:56:20;7.00;;;1.45;;
41653;SDS011;30790;52.030;7.110;2022-09-29T03:58:45;9.38;;;1.52;;
41653;SDS011;30790;52.030;7.110;2022-09-29T04:01:10;2.27;;;1.17;;
41653;SDS011;30790;52.030;7.110;2022-09-29T04:03:36;5.25;;;1.40;;
41653;SDS011;30790;52.030;7.110;2022-09-29T04:06:01;4.70;;;1.70;;
41653;SDS011;30790;52.030;7.110;2022-09-29T04:08:26;4.07;;;1.20;;
41653;SDS011;30790;52.030;7.110;2022-09-29T04:10:52;3.47;;;1.05;;
41653;SDS011;30790;52.030;7.110;2022-09-29T04:13:17;4.17;;;1.37;;
41653;SDS011;30790;52.030;7.110;2022-09-29T04:15:42;7.00;;;1.20;;
41653;SDS011;30790;52.030;7.110;2022-09-29T04:18:08;4.40;;;1.55;;
41653;SDS011;30790;52.030;7.110;2022-09-29T04:20:33;3.50;;;1.30;;
41653;SDS011;30790;52.030;7.110;2022-09-29T04:22:58;3.17;;;1.30;;
41653;SDS011;30790;52.030;7.110;2022-09-29T04:25:25;3.65;;;1.10;;
41653;SDS011;30790;52.030;7.110;2022-09-29T04:27:51;6.30;;;1.15;;
41653;SDS011;30790;52.030;7.110;2022-09-29T04:30:17;4.88;;;1.35;;
41653;SDS011;30790;52.030;7.110;2022-09-29T04:32:42;7.85;;;1.30;;
41653;SDS011;30790;52.030;7.110;2022-09-29T04:35:08;4.35;;;1.25;;
41653;SDS011;30790;52.030;7.110;2022-09-29T04:37:33;3.60;;;1.30;;
41653;SDS011;30790;52.030;7.110;2022-09-29T04:39:59;8.77;;;1.70;;
41653;SDS011;30790;52.030;7.110;2022-09-29T04:42:24;3.38;;;1.27;;
41653;SDS011;30790;52.030;7.110;2022-09-29T04:44:50;6.70;;;1.08;;
41653;SDS011;30790;52.030;7.110;2022-09-29T04:47:15;5.07;;;1.20;;
41653;SDS011;30790;52.030;7.110;2022-09-29T04:49:41;2.45;;;1.00;;
41653;SDS011;30790;52.030;7.110;2022-09-29T04:52:06;6.15;;;1.42;;
41653;SDS011;30790;52.030;7.110;2022-09-29T04:54:32;2.65;;;1.30;;
41653;SDS011;30790;52.030;7.110;2022-09-29T04:56:58;7.28;;;1.98;;
41653;SDS011;30790;52.030;7.110;2022-09-29T04:59:25;3.67;;;1.17;;
41653;SDS011;30790;52.030;7.110;2022-09-29T05:01:51;2.72;;;1.10;;
41653;SDS011;30790;52.030;7.110;2022-09-29T05:04:17;6.32;;;1.60;;
41653;SDS011;30790;52.030;7.110;2022-09-29T05:06:43;4.57;;;1.30;;
41653;SDS011;30790;52.030;7.110;2022-09-29T05:09:08;3.30;;;1.40;;
41653;SDS011;30790;52.030;7.110;2022-09-29T05:11:33;2.95;;;1.25;;
41653;SDS011;30790;52.030;7.110;2022-09-29T05:13:59;2.08;;;1.15;;
41653;SDS011;30790;52.030;7.110;2022-09-29T05:16:25;2.50;;;1.30;;
41653;SDS011;30790;52.030;7.110;2022-09-29T05:18:50;2.60;;;1.20;;
41653;SDS011;30790;52.030;7.110;2022-09-29T05:21:15;3.17;;;1.20;;
41653;SDS011;30790;52.030;7.110;2022-09-29T05:23:41;4.93;;;0.93;;
41653;SDS011;30790;52.030;7.110;2022-09-29T05:26:07;5.35;;;0.95;;
41653;SDS011;30790;52.030;7.110;2022-09-29T05:28:33;2.75;;;0.93;;
41653;SDS011;30790;52.030;7.110;2022-09-29T05:31:00;4.47;;;1.50;;
41653;SDS011;30790;52.030;7.110;2022-09-29T05:33:26;4.85;;;1.15;;
41653;SDS011;30790;52.030;7.110;2022-09-29T05:35:52;1.92;;;1.10;;
41653;SDS011;30790;52.030;7.110;2022-09-29T05:38:17;4.28;;;1.35;;
41653;SDS011;30790;52.030;7.110;2022-09-29T05:40:42;2.20;;;1.33;;
41653;SDS011;30790;52.030;7.110;2022-09-29T05:43:07;3.83;;;0.97;;
41653;SDS011;30790;52.030;7.110;2022-09-29T05:45:33;5.38;;;1.20;;
41653;SDS011;30790;52.030;7.110;2022-09-29T05:47:58;1.97;;;1.10;;
41653;SDS011;30790;52.030;7.110;2022-09-29T05:50:23;11.73;;;1.70;;
41653;SDS011;30790;52.030;7.110;2022-09-29T05:52:48;13.23;;;2.47;;
41653;SDS011;30790;52.030;7.110;2022-09-29T05:55:14;10.07;;;2.47;;
41653;SDS011;30790;52.030;7.110;2022-09-29T05:57:40;16.13;;;3.60;;
41653;SDS011;30790;52.030;7.110;2022-09-29T06:00:05;11.80;;;8.05;;
41653;SDS011;30790;52.030;7.110;2022-09-29T06:02:31;18.25;;;12.30;;
41653;SDS011;30790;52.030;7.110;2022-09-29T06:04:57;22.52;;;14.77;;
41653;SDS011;30790;52.030;7.110;2022-09-29T06:07:23;23.60;;;15.10;;
41653;SDS011;30790;52.030;7.110;2022-09-29T06:09:48;21.25;;;13.35;;
41653;SDS011;30790;52.030;7.110;2022-09-29T06:12:14;20.77;;;12.65;;
41653;SDS011;30790;52.030;7.110;2022-09-29T06:14:39;18.15;;;12.35;;
41653;SDS011;30790;52.030;7.110;2022-09-29T06:17:04;17.13;;;11.77;;
41653;SDS011;30790;52.030;7.110;2022-09-29T06:19:29;16.92;;;11.35;;
41653;SDS011;30790;52.030;7.110;2022-09-29T06:21:54;19.40;;;9.25;;
41653;SDS011;30790;52.030;7.110;2022-09-29T06:24:20;13.68;;;7.90;;
41653;SDS011;30790;52.030;7.110;2022-09-29T06:26:45;12.27;;;6.75;;
41653;SDS011;30790;52.030;7.110;2022-09-29T06:29:10;11.18;;;6.80;;
41653;SDS011;30790;52.030;7.110;2022-09-29T06:31:36;10.10;;;5.65;;
41653;SDS011;30790;52.030;7.110;2022-09-29T06:34:04;10.27;;;5.57;;
41653;SDS011;30790;52.030;7.110;2022-09-29T06:36:34;8.98;;;5.25;;
41653;SDS011;30790;52.030;7.110;2022-09-29T06:39:21;10.85;;;5.15;;
41653;SDS011;30790;52.030;7.110;2022-09-29T06:41:47;9.40;;;4.32;;
41653;SDS011;30790;52.030;7.110;2022-09-29T06:44:20;11.82;;;4.85;;
41653;SDS011;30790;52.030;7.110;2022-09-29T06:46:51;10.20;;;4.47;;
41653;SDS011;30790;52.030;7.110;2022-09-29T06:49:17;6.38;;;4.10;;
41653;SDS011;30790;52.030;7.110;2022-09-29T06:51:43;11.38;;;4.55;;
41653;SDS011;30790;52.030;7.110;2022-09-29T06:54:09;8.57;;;4.00;;
41653;SDS011;30790;52.030;7.110;2022-09-29T06:56:35;6.45;;;3.55;;
41653;SDS011;30790;52.030;7.110;2022-09-29T06:59:01;8.10;;;3.72;;
41653;SDS011;30790;52.030;7.110;2022-09-29T07:01:26;8.77;;;3.97;;
41653;SDS011;30790;52.030;7.110;2022-09-29T07:03:51;10.77;;;3.95;;
41653;SDS011;30790;52.030;7.110;2022-09-29T07:06:17;9.20;;;4.20;;
41653;SDS011;30790;52.030;7.110;2022-09-29T07:08:42;15.45;;;4.47;;
41653;SDS011;30790;52.030;7.110;2022-09-29T07:11:07;17.05;;;4.18;;
41653;SDS011;30790;52.030;7.110;2022-09-29T07:13:34;10.73;;;4.57;;
41653;SDS011;30790;52.030;7.110;2022-09-29T07:16:04;8.38;;;3.70;;
41653;SDS011;30790;52.030;7.110;2022-09-29T07:18:34;11.55;;;5.03;;
41653;SDS011;30790;52.030;7.110;2022-09-29T07:21:04;12.25;;;3.83;;
41653;SDS011;30790;52.030;7.110;2022-09-29T07:23:31;9.57;;;4.00;;
41653;SDS011;30790;52.030;7.110;2022-09-29T07:25:57;10.45;;;4.15;;
41653;SDS011;30790;52.030;7.110;2022-09-29T07:28:22;13.27;;;4.88;;
41653;SDS011;30790;52.030;7.110;2022-09-29T07:30:56;11.23;;;4.32;;
41653;SDS011;30790;52.030;7.110;2022-09-29T07:33:25;12.15;;;5.13;;
41653;SDS011;30790;52.030;7.110;2022-09-29T07:35:51;11.85;;;4.15;;
41653;SDS011;30790;52.030;7.110;2022-09-29T07:38:17;12.93;;;4.35;;
41653;SDS011;30790;52.030;7.110;2022-09-29T07:40:42;8.60;;;3.70;;
41653;SDS011;30790;52.030;7.110;2022-09-29T07:43:07;9.93;;;4.03;;
41653;SDS011;30790;52.030;7.110;2022-09-29T07:45:33;6.55;;;3.20;;
41653;SDS011;30790;52.030;7.110;2022-09-29T07:47:58;13.70;;;3.58;;
41653;SDS011;30790;52.030;7.110;2022-09-29T07:50:23;8.93;;;3.92;;
41653;SDS011;30790;52.030;7.110;2022-09-29T07:52:49;11.83;;;3.80;;
41653;SDS011;30790;52.030;7.110;2022-09-29T07:55:15;11.20;;;3.58;;
41653;SDS011;30790;52.030;7.110;2022-09-29T07:57:40;14.82;;;4.25;;
41653;SDS011;30790;52.030;7.110;2022-09-29T08:00:06;10.52;;;3.80;;
41653;SDS011;30790;52.030;7.110;2022-09-29T08:02:32;7.57;;;3.15;;
41653;SDS011;30790;52.030;7.110;2022-09-29T08:04:57;10.77;;;4.03;;
41653;SDS011;30790;52.030;7.110;2022-09-29T08:07:22;11.47;;;3.60;;
41653;SDS011;30790;52.030;7.110;2022-09-29T08:09:48;12.10;;;4.03;;
41653;SDS011;30790;52.030;7.110;2022-09-29T08:12:13;29.50;;;4.73;;
41653;SDS011;30790;52.030;7.110;2022-09-29T08:14:38;11.45;;;3.83;;
41653;SDS011;30790;52.030;7.110;2022-09-29T08:17:04;9.93;;;4.05;;
41653;SDS011;30790;52.030;7.110;2022-09-29T08:19:29;14.73;;;4.90;;
41653;SDS011;30790;52.030;7.110;2022-09-29T08:21:54;10.03;;;3.53;;
41653;SDS011;30790;52.030;7.110;2022-09-29T08:24:19;11.90;;;4.03;;
41653;SDS011;30790;52.030;7.110;2022-09-29T08:26:45;13.15;;;4.65;;
41653;SDS011;30790;52.030;7.110;2022-09-29T08:29:13;11.23;;;4.20;;
41653;SDS011;30790;52.030;7.110;2022-09-29T08:31:39;9.48;;;3.58;;
41653;SDS011;30790;52.030;7.110;2022-09-29T08:34:04;10.65;;;3.50;;
41653;SDS011;30790;52.030;7.110;2022-09-29T08:36:30;10.63;;;4.00;;
41653;SDS011;30790;52.030;7.110;2022-09-29T08:38:56;7.78;;;3.15;;
41653;SDS011;30790;52.030;7.110;2022-09-29T08:44:40;8.00;;;4.13;;
41653;SDS011;30790;52.030;7.110;2022-09-29T08:47:19;7.00;;;3.63;;
41653;SDS011;30790;52.030;7.110;2022-09-29T08:52:38;8.85;;;4.28;;
41653;SDS011;30790;52.030;7.110;2022-09-29T08:57:37;9.52;;;3.65;;
41653;SDS011;30790;52.030;7.110;2022-09-29T09:00:03;15.18;;;3.67;;
41653;SDS011;30790;52.030;7.110;2022-09-29T09:05:17;8.82;;;3.72;;
41653;SDS011;30790;52.030;7.110;2022-09-29T09:10:28;9.70;;;3.63;;
41653;SDS011;30790;52.030;7.110;2022-09-29T09:16:42;14.98;;;4.13;;
41653;SDS011;30790;52.030;7.110;2022-09-29T09:19:27;15.98;;;4.07;;
41653;SDS011;30790;52.030;7.110;2022-09-29T09:24:47;13.95;;;3.17;;
41653;SDS011;30790;52.030;7.110;2022-09-29T09:27:23;11.90;;;3.78;;
41653;SDS011;30790;52.030;7.110;2022-09-29T09:29:53;8.75;;;3.25;;
41653;SDS011;30790;52.030;7.110;2022-09-29T09:32:26;9.30;;;3.75;;
41653;SDS011;30790;52.030;7.110;2022-09-29T09:37:38;22.33;;;9.43;;
41653;SDS011;30790;52.030;7.110;2022-09-29T09:40:20;14.48;;;9.88;;
41653;SDS011;30790;52.030;7.110;2022-09-29T09:42:53;13.77;;;9.73;;
41653;SDS011;30790;52.030;7.110;2022-09-29T09:45:36;18.67;;;10.93;;
41653;SDS011;30790;52.030;7.110;2022-09-29T09:48:21;24.30;;;14.15;;
41653;SDS011;30790;52.030;7.110;2022-09-29T09:50:54;19.25;;;11.80;;
41653;SDS011;30790;52.030;7.110;2022-09-29T09:53:27;20.58;;;15.05;;
41653;SDS011;30790;52.030;7.110;2022-09-29T09:56:47;19.92;;;12.80;;
41653;SDS011;30790;52.030;7.110;2022-09-29T09:59:04;19.77;;;11.38;;
41653;SDS011;30790;52.030;7.110;2022-09-29T10:01:33;16.85;;;11.88;;
41653;SDS011;30790;52.030;7.110;2022-09-29T10:03:58;17.15;;;11.40;;
41653;SDS011;30790;52.030;7.110;2022-09-29T10:06:25;16.67;;;11.30;;
41653;SDS011;30790;52.030;7.110;2022-09-29T10:08:50;18.75;;;11.00;;
41653;SDS011;30790;52.030;7.110;2022-09-29T10:14:02;14.90;;;9.52;;
41653;SDS011;30790;52.030;7.110;2022-09-29T10:22:17;8.30;;;5.53;;
41653;SDS011;30790;52.030;7.110;2022-09-29T10:24:43;7.22;;;4.53;;
41653;SDS011;30790;52.030;7.110;2022-09-29T10:27:08;8.00;;;4.20;;
41653;SDS011;30790;52.030;7.110;2022-09-29T10:29:37;8.93;;;4.10;;
41653;SDS011;30790;52.030;7.110;2022-09-29T10:32:04;6.57;;;3.95;;
41653;SDS011;30790;52.030;7.110;2022-09-29T10:34:32;11.80;;;3.50;;
41653;SDS011;30790;52.030;7.110;2022-09-29T10:37:02;5.32;;;3.67;;
41653;SDS011;30790;52.030;7.110;2022-09-29T10:39:40;12.00;;;4.18;;
41653;SDS011;30790;52.030;7.110;2022-09-29T10:42:23;10.77;;;3.60;;
41653;SDS011;30790;52.030;7.110;2022-09-29T10:45:16;7.40;;;3.35;;
41653;SDS011;30790;52.030;7.110;2022-09-29T10:50:29;5.13;;;2.78;;
41653;SDS011;30790;52.030;7.110;2022-09-29T10:52:57;7.68;;;2.97;;
41653;SDS011;30790;52.030;7.110;2022-09-29T10:55:26;12.35;;;3.20;;
41653;SDS011;30790;52.030;7.110;2022-09-29T10:57:54;12.18;;;2.90;;
41653;SDS011;30790;52.030;7.110;2022-09-29T11:00:26;8.02;;;3.05;;
41653;SDS011;30790;52.030;7.110;2022-09-29T11:02:52;4.35;;;2.40;;
41653;SDS011;30790;52.030;7.110;2022-09-29T11:05:25;7.95;;;3.33;;
41653;SDS011;30790;52.030;7.110;2022-09-29T11:07:51;11.25;;;3.05;;
41653;SDS011;30790;52.030;7.110;2022-09-29T11:10:36;6.65;;;2.88;;
41653;SDS011;30790;52.030;7.110;2022-09-29T11:15:42;7.93;;;2.92;;
41653;SDS011;30790;52.030;7.110;2022-09-29T11:18:18;6.93;;;2.60;;
41653;SDS011;30790;52.030;7.110;2022-09-29T11:20:46;7.68;;;2.90;;
41653;SDS011;30790;52.030;7.110;2022-09-29T11:23:23;6.60;;;2.58;;
41653;SDS011;30790;52.030;7.110;2022-09-29T11:28:57;8.18;;;2.75;;
41653;SDS011;30790;52.030;7.110;2022-09-29T11:34:49;4.88;;;2.45;;
41653;SDS011;30790;52.030;7.110;2022-09-29T11:45:41;4.63;;;2.47;;
41653;SDS011;30790;52.030;7.110;2022-09-29T11:53:49;3.97;;;2.42;;
41653;SDS011;30790;52.030;7.110;2022-09-29T11:56:36;5.18;;;2.72;;
41653;SDS011;30790;52.030;7.110;2022-09-29T12:05:12;4.47;;;2.70;;
41653;SDS011;30790;52.030;7.110;2022-09-29T12:13:28;3.47;;;2.13;;
41653;SDS011;30790;52.030;7.110;2022-09-29T12:16:34;6.68;;;2.20;;
41653;SDS011;30790;52.030;7.110;2022-09-29T12:19:12;7.00;;;2.33;;
41653;SDS011;30790;52.030;7.110;2022-09-29T12:21:43;9.68;;;2.60;;
41653;SDS011;30790;52.030;7.110;2022-09-29T12:24:33;7.40;;;2.55;;
41653;SDS011;30790;52.030;7.110;2022-09-29T12:27:06;5.22;;;2.75;;
41653;SDS011;30790;52.030;7.110;2022-09-29T12:29:43;5.13;;;2.33;;
41653;SDS011;30790;52.030;7.110;2022-09-29T12:32:33;8.43;;;2.75;;
41653;SDS011;30790;52.030;7.110;2022-09-29T12:35:05;6.88;;;2.10;;
41653;SDS011;30790;52.030;7.110;2022-09-29T12:38:25;5.22;;;2.15;;
41653;SDS011;30790;52.030;7.110;2022-09-29T12:40:37;3.53;;;2.40;;
41653;SDS011;30790;52.030;7.110;2022-09-29T12:45:39;4.95;;;2.25;;
41653;SDS011;30790;52.030;7.110;2022-09-29T12:50:41;10.82;;;2.33;;
41653;SDS011;30790;52.030;7.110;2022-09-29T12:53:28;2.70;;;1.73;;
41653;SDS011;30790;52.030;7.110;2022-09-29T12:58:36;4.10;;;2.22;;
41653;SDS011;30790;52.030;7.110;2022-09-29T13:01:31;9.85;;;2.53;;
41653;SDS011;30790;52.030;7.110;2022-09-29T13:06:55;11.27;;;2.40;;
41653;SDS011;30790;52.030;7.110;2022-09-29T13:12:10;3.33;;;1.92;;
41653;SDS011;30790;52.030;7.110;2022-09-29T13:17:34;5.25;;;2.05;;
41653;SDS011;30790;52.030;7.110;2022-09-29T13:23:24;4.93;;;2.25;;
41653;SDS011;30790;52.030;7.110;2022-09-29T13:28:48;7.55;;;2.05;;
41653;SDS011;30790;52.030;7.110;2022-09-29T13:31:19;6.90;;;1.90;;
41653;SDS011;30790;52.030;7.110;2022-09-29T13:33:50;12.48;;;2.30;;
41653;SDS011;30790;52.030;7.110;2022-09-29T13:36:25;10.48;;;2.88;;
41653;SDS011;30790;52.030;7.110;2022-09-29T13:38:54;3.30;;;2.00;;
41653;SDS011;30790;52.030;7.110;2022-09-29T13:46:25;5.30;;;1.83;;
41653;SDS011;30790;52.030;7.110;2022-09-29T13:48:52;6.22;;;1.73;;
41653;SDS011;30790;52.030;7.110;2022-09-29T13:51:27;7.50;;;1.88;;
41653;SDS011;30790;52.030;7.110;2022-09-29T13:54:26;6.97;;;2.00;;
41653;SDS011;30790;52.030;7.110;2022-09-29T14:02:34;3.80;;;1.55;;
41653;SDS011;30790;52.030;7.110;2022-09-29T14:05:00;4.50;;;1.38;;
41653;SDS011;30790;52.030;7.110;2022-09-29T14:07:45;6.85;;;1.30;;
41653;SDS011;30790;52.030;7.110;2022-09-29T14:10:29;3.40;;;1.48;;
41653;SDS011;30790;52.030;7.110;2022-09-29T14:15:27;4.40;;;1.73;;
41653;SDS011;30790;52.030;7.110;2022-09-29T14:18:01;5.22;;;1.08;;
41653;SDS011;30790;52.030;7.110;2022-09-29T14:20:36;8.70;;;1.52;;
41653;SDS011;30790;52.030;7.110;2022-09-29T14:23:05;8.10;;;1.55;;
41653;SDS011;30790;52.030;7.110;2022-09-29T14:25:33;2.67;;;1.27;;
41653;SDS011;30790;52.030;7.110;2022-09-29T14:28:21;9.38;;;1.45;;
41653;SDS011;30790;52.030;7.110;2022-09-29T14:30:53;7.85;;;1.70;;
41653;SDS011;30790;52.030;7.110;2022-09-29T14:33:22;5.50;;;1.60;;
41653;SDS011;30790;52.030;7.110;2022-09-29T14:38:59;7.63;;;1.65;;
41653;SDS011;30790;52.030;7.110;2022-09-29T14:41:25;4.93;;;1.70;;
41653;SDS011;30790;52.030;7.110;2022-09-29T14:43:58;6.65;;;1.50;;
41653;SDS011;30790;52.030;7.110;2022-09-29T14:46:44;6.18;;;2.28;;
41653;SDS011;30790;52.030;7.110;2022-09-29T14:52:55;3.47;;;1.70;;
41653;SDS011;30790;52.030;7.110;2022-09-29T14:58:24;5.45;;;1.80;;
41653;SDS011;30790;52.030;7.110;2022-09-29T15:03:56;7.43;;;2.17;;
41653;SDS011;30790;52.030;7.110;2022-09-29T15:06:28;4.95;;;1.92;;
41653;SDS011;30790;52.030;7.110;2022-09-29T15:08:59;6.70;;;1.85;;
41653;SDS011;30790;52.030;7.110;2022-09-29T15:11:41;7.68;;;1.98;;
41653;SDS011;30790;52.030;7.110;2022-09-29T15:14:21;5.30;;;2.13;;
41653;SDS011;30790;52.030;7.110;2022-09-29T15:20:00;4.15;;;1.73;;
41653;SDS011;30790;52.030;7.110;2022-09-29T15:25:25;8.60;;;2.60;;
41653;SDS011;30790;52.030;7.110;2022-09-29T15:31:06;9.13;;;2.40;;
41653;SDS011;30790;52.030;7.110;2022-09-29T15:33:43;5.50;;;2.17;;
41653;SDS011;30790;52.030;7.110;2022-09-29T15:36:15;8.82;;;2.30;;
41653;SDS011;30790;52.030;7.110;2022-09-29T15:38:46;7.50;;;2.42;;
41653;SDS011;30790;52.030;7.110;2022-09-29T15:41:17;9.23;;;2.55;;
41653;SDS011;30790;52.030;7.110;2022-09-29T15:43:52;7.28;;;2.65;;
41653;SDS011;30790;52.030;7.110;2022-09-29T15:49:06;12.98;;;2.40;;
41653;SDS011;30790;52.030;7.110;2022-09-29T15:54:00;10.05;;;2.35;;
41653;SDS011;30790;52.030;7.110;2022-09-29T15:56:29;4.78;;;2.20;;
41653;SDS011;30790;52.030;7.110;2022-09-29T15:58:57;12.60;;;2.90;;
41653;SDS011;30790;52.030;7.110;2022-09-29T16:01:22;7.28;;;2.70;;
41653;SDS011;30790;52.030;7.110;2022-09-29T16:03:49;12.00;;;2.95;;
41653;SDS011;30790;52.030;7.110;2022-09-29T16:08:56;19.33;;;3.67;;
41653;SDS011;30790;52.030;7.110;2022-09-29T16:14:01;14.50;;;3.08;;
41653;SDS011;30790;52.030;7.110;2022-09-29T16:16:32;18.27;;;3.45;;
41653;SDS011;30790;52.030;7.110;2022-09-29T16:19:08;17.88;;;3.33;;
41653;SDS011;30790;52.030;7.110;2022-09-29T16:21:38;9.27;;;3.22;;
41653;SDS011;30790;52.030;7.110;2022-09-29T16:26:41;10.80;;;3.10;;
41653;SDS011;30790;52.030;7.110;2022-09-29T16:31:35;10.33;;;2.50;;
41653;SDS011;30790;52.030;7.110;2022-09-29T16:34:03;18.08;;;3.33;;
41653;SDS011;30790;52.030;7.110;2022-09-29T16:36:49;16.42;;;3.08;;
41653;SDS011;30790;52.030;7.110;2022-09-29T16:39:16;17.67;;;3.75;;
41653;SDS011;30790;52.030;7.110;2022-09-29T16:41:47;24.52;;;3.70;;
41653;SDS011;30790;52.030;7.110;2022-09-29T16:44:14;14.55;;;4.07;;
41653;SDS011;30790;52.030;7.110;2022-09-29T16:46:54;17.70;;;3.28;;
41653;SDS011;30790;52.030;7.110;2022-09-29T16:49:29;15.40;;;2.78;;
41653;SDS011;30790;52.030;7.110;2022-09-29T16:52:41;20.85;;;3.20;;
41653;SDS011;30790;52.030;7.110;2022-09-29T16:54:52;16.77;;;4.03;;
41653;SDS011;30790;52.030;7.110;2022-09-29T16:57:30;13.43;;;2.95;;
41653;SDS011;30790;52.030;7.110;2022-09-29T16:59:56;12.40;;;3.75;;
41653;SDS011;30790;52.030;7.110;2022-09-29T17:02:23;6.93;;;2.50;;
41653;SDS011;30790;52.030;7.110;2022-09-29T17:04:50;11.68;;;3.38;;
41653;SDS011;30790;52.030;7.110;2022-09-29T17:07:17;17.77;;;3.33;;
41653;SDS011;30790;52.030;7.110;2022-09-29T17:09:55;10.43;;;3.00;;
41653;SDS011;30790;52.030;7.110;2022-09-29T17:12:22;15.52;;;2.83;;
41653;SDS011;30790;52.030;7.110;2022-09-29T17:14:48;13.93;;;3.17;;
41653;SDS011;30790;52.030;7.110;2022-09-29T17:17:21;16.70;;;2.90;;
41653;SDS011;30790;52.030;7.110;2022-09-29T17:19:50;9.52;;;2.50;;
41653;SDS011;30790;52.030;7.110;2022-09-29T17:22:27;17.63;;;3.65;;
41653;SDS011;30790;52.030;7.110;2022-09-29T17:24:57;17.52;;;3.78;;
41653;SDS011;30790;52.030;7.110;2022-09-29T17:27:23;7.63;;;2.42;;
41653;SDS011;30790;52.030;7.110;2022-09-29T17:30:08;6.90;;;2.93;;
41653;SDS011;30790;52.030;7.110;2022-09-29T17:32:35;10.63;;;3.03;;
41653;SDS011;30790;52.030;7.110;2022-09-29T17:35:01;12.38;;;3.15;;
41653;SDS011;30790;52.030;7.110;2022-09-29T17:37:27;17.13;;;3.67;;
41653;SDS011;30790;52.030;7.110;2022-09-29T17:39:52;8.40;;;2.97;;
41653;SDS011;30790;52.030;7.110;2022-09-29T17:42:18;14.77;;;3.05;;
41653;SDS011;30790;52.030;7.110;2022-09-29T17:44:43;11.40;;;2.72;;
41653;SDS011;30790;52.030;7.110;2022-09-29T17:47:12;9.98;;;2.63;;